sensor_id;sensor_type;location;lat;lon;timestamp;temperature;humidity
15819;DHT22;8010;53.986;12.106;2023-11-19T00:01:31;5.10;99.90
15819;DHT22;8010;53.986;12.106;2023-11-19T00:03:58;5.10;99.90
15819;DHT22;8010;53.986;12.106;2023-11-19T00:06:23;5.10;99.90
15819;DHT22;8010;53.986;12.106;2023-11-19T00:08:50;5.00;99.90
15819;DHT22;8010;53.986;12.106;2023-11-19T00:11:15;5.00;99.90
15819;DHT22;8010;53.986;12.106;2023-11-19T00:13:41;5.00;99.90
15819;DHT22;8010;53.986;12.106;2023-11-19T00:16:07;5.00;99.90
15819;DHT22;8010;53.986;12.106;2023-11-19T00:18:33;5.00;99.90
15819;DHT22;8010;53.986;12.106;2023-11-19T00:20:58;5.00;99.90
15819;DHT22;8010;53.986;12.106;2023-11-19T00:23:24;5.00;99.90
15819;DHT22;8010;53.986;12.106;2023-11-19T00:25:49;5.00;99.90
15819;DHT22;8010;53.986;12.106;2023-11-19T00:28:15;5.00;99.90
15819;DHT22;8010;53.986;12.106;2023-11-19T00:30:40;5.10;99.90
15819;DHT22;8010;53.986;12.106;2023-11-19T00:33:06;5.10;99.90
15819;DHT22;8010;53.986;12.106;2023-11-19T00:35:32;5.10;99.90
15819;DHT22;8010;53.986;12.106;2023-11-19T00:37:58;5.10;99.90
15819;DHT22;8010;53.986;12.106;2023-11-19T00:40:23;5.10;99.90
15819;DHT22;8010;53.986;12.106;2023-11-19T00:42:49;5.10;99.90
15819;DHT22;8010;53.986;12.106;2023-11-19T00:45:15;5.10;99.90
15819;DHT22;8010;53.986;12.106;2023-11-19T00:47:41;5.10;99.90
15819;DHT22;8010;53.986;12.106;2023-11-19T00:50:07;5.10;99.90
15819;DHT22;8010;53.986;12.106;2023-11-19T00:52:35;5.10;99.90
15819;DHT22;8010;53.986;12.106;2023-11-19T00:55:01;5.10;99.90
15819;DHT22;8010;53.986;12.106;2023-11-19T00:57:27;5.10;99.90
15819;DHT22;8010;53.986;12.106;2023-11-19T00:59:53;5.20;99.90
15819;DHT22;8010;53.986;12.106;2023-11-19T01:02:18;5.10;99.90
15819;DHT22;8010;53.986;12.106;2023-11-19T01:04:44;5.20;99.90
15819;DHT22;8010;53.986;12.106;2023-11-19T01:07:10;5.10;99.90
15819;DHT22;8010;53.986;12.106;2023-11-19T01:09:38;5.10;99.90
15819;DHT22;8010;53.986;12.106;2023-11-19T01:12:04;5.10;99.90
15819;DHT22;8010;53.986;12.106;2023-11-19T01:14:30;5.10;99.90
15819;DHT22;8010;53.986;12.106;2023-11-19T01:16:56;5.00;99.90
15819;DHT22;8010;53.986;12.106;2023-11-19T01:19:22;5.00;99.90
15819;DHT22;8010;53.986;12.106;2023-11-19T01:21:49;5.00;99.90
15819;DHT22;8010;53.986;12.106;2023-11-19T01:24:14;4.90;99.90
15819;DHT22;8010;53.986;12.106;2023-11-19T01:26:40;4.90;99.90
15819;DHT22;8010;53.986;12.106;2023-11-19T01:29:11;4.90;99.90
15819;DHT22;8010;53.986;12.106;2023-11-19T01:31:39;6.20;99.90
15819;DHT22;8010;53.986;12.106;2023-11-19T01:34:05;4.90;99.90
15819;DHT22;8010;53.986;12.106;2023-11-19T01:36:30;4.80;99.90
15819;DHT22;8010;53.986;12.106;2023-11-19T01:38:56;4.80;99.90
15819;DHT22;8010;53.986;12.106;2023-11-19T01:41:21;4.80;99.90
15819;DHT22;8010;53.986;12.106;2023-11-19T01:43:47;4.80;99.90
15819;DHT22;8010;53.986;12.106;2023-11-19T01:46:13;4.80;99.90
15819;DHT22;8010;53.986;12.106;2023-11-19T01:48:45;4.80;99.90
15819;DHT22;8010;53.986;12.106;2023-11-19T01:51:14;4.80;99.90
15819;DHT22;8010;53.986;12.106;2023-11-19T01:53:43;4.80;99.90
15819;DHT22;8010;53.986;12.106;2023-11-19T01:56:09;4.80;99.90
15819;DHT22;8010;53.986;12.106;2023-11-19T01:58:37;4.80;99.90
15819;DHT22;8010;53.986;12.106;2023-11-19T02:01:05;4.80;99.90
15819;DHT22;8010;53.986;12.106;2023-11-19T02:03:31;4.80;99.90
15819;DHT22;8010;53.986;12.106;2023-11-19T02:05:59;4.80;99.90
15819;DHT22;8010;53.986;12.106;2023-11-19T02:08:25;4.80;99.90
15819;DHT22;8010;53.986;12.106;2023-11-19T02:10:51;4.80;99.90
15819;DHT22;8010;53.986;12.106;2023-11-19T02:13:18;4.80;99.90
15819;DHT22;8010;53.986;12.106;2023-11-19T02:15:44;4.80;99.90
15819;DHT22;8010;53.986;12.106;2023-11-19T02:20:45;4.70;99.90
15819;DHT22;8010;53.986;12.106;2023-11-19T02:23:12;4.70;99.90
15819;DHT22;8010;53.986;12.106;2023-11-19T02:25:38;4.80;99.90
15819;DHT22;8010;53.986;12.106;2023-11-19T02:28:06;4.80;99.90
15819;DHT22;8010;53.986;12.106;2023-11-19T02:30:32;4.80;99.90
15819;DHT22;8010;53.986;12.106;2023-11-19T02:32:58;4.80;99.90
15819;DHT22;8010;53.986;12.106;2023-11-19T02:35:27;4.80;99.90
15819;DHT22;8010;53.986;12.106;2023-11-19T02:37:56;4.80;99.90
15819;DHT22;8010;53.986;12.106;2023-11-19T02:40:21;4.80;99.90
15819;DHT22;8010;53.986;12.106;2023-11-19T02:42:49;4.80;99.90
15819;DHT22;8010;53.986;12.106;2023-11-19T02:45:15;4.90;99.90
15819;DHT22;8010;53.986;12.106;2023-11-19T02:47:41;4.90;99.90
15819;DHT22;8010;53.986;12.106;2023-11-19T02:50:12;4.90;99.90
15819;DHT22;8010;53.986;12.106;2023-11-19T02:52:44;4.90;99.90
15819;DHT22;8010;53.986;12.106;2023-11-19T02:55:11;4.90;99.90
15819;DHT22;8010;53.986;12.106;2023-11-19T02:57:40;4.90;99.90
15819;DHT22;8010;53.986;12.106;2023-11-19T03:02:43;4.90;99.90
15819;DHT22;8010;53.986;12.106;2023-11-19T03:05:14;5.00;99.90
15819;DHT22;8010;53.986;12.106;2023-11-19T03:07:43;5.00;99.90
15819;DHT22;8010;53.986;12.106;2023-11-19T03:10:12;5.00;99.90
15819;DHT22;8010;53.986;12.106;2023-11-19T03:12:42;5.00;99.90
15819;DHT22;8010;53.986;12.106;2023-11-19T03:15:08;5.00;99.90
15819;DHT22;8010;53.986;12.106;2023-11-19T03:17:40;5.00;99.90
15819;DHT22;8010;53.986;12.106;2023-11-19T03:20:08;5.00;99.90
15819;DHT22;8010;53.986;12.106;2023-11-19T03:22:40;5.00;99.90
15819;DHT22;8010;53.986;12.106;2023-11-19T03:25:07;5.00;99.90
15819;DHT22;8010;53.986;12.106;2023-11-19T03:27:35;5.00;99.90
15819;DHT22;8010;53.986;12.106;2023-11-19T03:30:02;5.00;99.90
15819;DHT22;8010;53.986;12.106;2023-11-19T03:32:28;5.00;99.90
15819;DHT22;8010;53.986;12.106;2023-11-19T03:34:54;5.00;99.90
15819;DHT22;8010;53.986;12.106;2023-11-19T03:37:20;5.00;99.90
15819;DHT22;8010;53.986;12.106;2023-11-19T03:39:46;5.00;99.90
15819;DHT22;8010;53.986;12.106;2023-11-19T03:42:11;5.00;99.90
15819;DHT22;8010;53.986;12.106;2023-11-19T03:44:38;5.00;99.90
15819;DHT22;8010;53.986;12.106;2023-11-19T03:47:04;5.00;99.90
15819;DHT22;8010;53.986;12.106;2023-11-19T03:49:29;5.00;99.90
15819;DHT22;8010;53.986;12.106;2023-11-19T03:51:55;5.00;99.90
15819;DHT22;8010;53.986;12.106;2023-11-19T03:54:20;5.10;99.90
15819;DHT22;8010;53.986;12.106;2023-11-19T03:56:48;5.10;99.90
15819;DHT22;8010;53.986;12.106;2023-11-19T03:59:13;5.10;99.90
15819;DHT22;8010;53.986;12.106;2023-11-19T04:01:40;5.10;99.90
15819;DHT22;8010;53.986;12.106;2023-11-19T04:04:06;5.10;99.90
15819;DHT22;8010;53.986;12.106;2023-11-19T04:06:32;5.10;99.90
15819;DHT22;8010;53.986;12.106;2023-11-19T04:08:57;5.10;99.90
15819;DHT22;8010;53.986;12.106;2023-11-19T04:11:23;5.10;99.90
15819;DHT22;8010;53.986;12.106;2023-11-19T04:13:48;5.10;99.90
15819;DHT22;8010;53.986;12.106;2023-11-19T04:16:14;5.10;99.90
15819;DHT22;8010;53.986;12.106;2023-11-19T04:18:40;5.10;99.90
15819;DHT22;8010;53.986;12.106;2023-11-19T04:21:06;5.10;99.90
15819;DHT22;8010;53.986;12.106;2023-11-19T04:23:32;5.10;99.90
15819;DHT22;8010;53.986;12.106;2023-11-19T04:25:58;5.10;99.90
15819;DHT22;8010;53.986;12.106;2023-11-19T04:28:23;5.10;99.90
15819;DHT22;8010;53.986;12.106;2023-11-19T04:30:52;5.10;99.90
15819;DHT22;8010;53.986;12.106;2023-11-19T04:33:17;5.10;99.90
15819;DHT22;8010;53.986;12.106;2023-11-19T04:35:43;5.10;99.90
15819;DHT22;8010;53.986;12.106;2023-11-19T04:38:08;5.10;99.90
15819;DHT22;8010;53.986;12.106;2023-11-19T04:40:34;5.10;99.90
15819;DHT22;8010;53.986;12.106;2023-11-19T04:43:00;5.10;99.90
15819;DHT22;8010;53.986;12.106;2023-11-19T04:45:25;5.00;99.90
15819;DHT22;8010;53.986;12.106;2023-11-19T04:47:51;5.10;99.90
15819;DHT22;8010;53.986;12.106;2023-11-19T04:50:16;5.10;99.90
15819;DHT22;8010;53.986;12.106;2023-11-19T04:52:43;5.10;99.90
15819;DHT22;8010;53.986;12.106;2023-11-19T04:55:10;5.10;99.90
15819;DHT22;8010;53.986;12.106;2023-11-19T04:57:37;5.10;99.90
15819;DHT22;8010;53.986;12.106;2023-11-19T05:00:03;5.10;99.90
15819;DHT22;8010;53.986;12.106;2023-11-19T05:02:30;5.10;99.90
15819;DHT22;8010;53.986;12.106;2023-11-19T05:04:56;5.10;99.90
15819;DHT22;8010;53.986;12.106;2023-11-19T05:07:22;5.10;99.90
15819;DHT22;8010;53.986;12.106;2023-11-19T05:09:47;5.10;99.90
15819;DHT22;8010;53.986;12.106;2023-11-19T05:12:13;5.10;99.90
15819;DHT22;8010;53.986;12.106;2023-11-19T05:14:38;5.10;99.90
15819;DHT22;8010;53.986;12.106;2023-11-19T05:17:04;5.10;99.90
15819;DHT22;8010;53.986;12.106;2023-11-19T05:19:30;5.10;99.90
15819;DHT22;8010;53.986;12.106;2023-11-19T05:21:55;5.10;99.90
15819;DHT22;8010;53.986;12.106;2023-11-19T05:24:21;5.10;99.90
15819;DHT22;8010;53.986;12.106;2023-11-19T05:26:46;5.10;99.90
15819;DHT22;8010;53.986;12.106;2023-11-19T05:29:12;5.20;99.90
15819;DHT22;8010;53.986;12.106;2023-11-19T05:31:38;5.10;99.90
15819;DHT22;8010;53.986;12.106;2023-11-19T05:34:03;5.10;99.90
15819;DHT22;8010;53.986;12.106;2023-11-19T05:36:29;5.10;99.90
15819;DHT22;8010;53.986;12.106;2023-11-19T05:38:55;5.10;99.90
15819;DHT22;8010;53.986;12.106;2023-11-19T05:41:21;5.10;99.90
15819;DHT22;8010;53.986;12.106;2023-11-19T05:43:46;5.10;99.90
15819;DHT22;8010;53.986;12.106;2023-11-19T05:46:12;5.10;99.90
15819;DHT22;8010;53.986;12.106;2023-11-19T05:48:38;5.10;99.90
15819;DHT22;8010;53.986;12.106;2023-11-19T05:51:04;5.10;99.90
15819;DHT22;8010;53.986;12.106;2023-11-19T05:53:31;5.10;99.90
15819;DHT22;8010;53.986;12.106;2023-11-19T05:55:57;5.10;99.90
15819;DHT22;8010;53.986;12.106;2023-11-19T05:58:24;5.10;99.90
15819;DHT22;8010;53.986;12.106;2023-11-19T06:00:51;5.10;99.90
15819;DHT22;8010;53.986;12.106;2023-11-19T06:03:17;5.10;99.90
15819;DHT22;8010;53.986;12.106;2023-11-19T06:05:46;5.10;99.90
15819;DHT22;8010;53.986;12.106;2023-11-19T06:08:12;5.10;99.90
15819;DHT22;8010;53.986;12.106;2023-11-19T06:10:42;5.10;99.90
15819;DHT22;8010;53.986;12.106;2023-11-19T06:13:08;5.70;99.90
15819;DHT22;8010;53.986;12.106;2023-11-19T06:15:35;5.10;99.90
15819;DHT22;8010;53.986;12.106;2023-11-19T06:18:01;5.10;99.90
15819;DHT22;8010;53.986;12.106;2023-11-19T06:20:29;5.10;99.90
15819;DHT22;8010;53.986;12.106;2023-11-19T06:22:56;5.10;99.90
15819;DHT22;8010;53.986;12.106;2023-11-19T06:25:22;5.10;99.90
15819;DHT22;8010;53.986;12.106;2023-11-19T06:27:49;5.10;99.90
15819;DHT22;8010;53.986;12.106;2023-11-19T06:30:15;5.20;99.90
15819;DHT22;8010;53.986;12.106;2023-11-19T06:32:41;5.20;99.90
15819;DHT22;8010;53.986;12.106;2023-11-19T06:35:07;5.20;99.90
15819;DHT22;8010;53.986;12.106;2023-11-19T06:37:33;5.20;99.90
15819;DHT22;8010;53.986;12.106;2023-11-19T06:39:59;5.20;99.90
15819;DHT22;8010;53.986;12.106;2023-11-19T06:42:24;5.20;99.90
15819;DHT22;8010;53.986;12.106;2023-11-19T06:44:50;5.20;99.90
15819;DHT22;8010;53.986;12.106;2023-11-19T06:47:16;5.20;99.90
15819;DHT22;8010;53.986;12.106;2023-11-19T06:49:44;5.20;99.90
15819;DHT22;8010;53.986;12.106;2023-11-19T06:52:10;5.20;99.90
15819;DHT22;8010;53.986;12.106;2023-11-19T06:54:35;5.20;99.90
15819;DHT22;8010;53.986;12.106;2023-11-19T06:57:01;5.20;99.90
15819;DHT22;8010;53.986;12.106;2023-11-19T06:59:28;5.20;99.90
15819;DHT22;8010;53.986;12.106;2023-11-19T07:01:55;5.20;99.90
15819;DHT22;8010;53.986;12.106;2023-11-19T07:04:21;5.20;99.90
15819;DHT22;8010;53.986;12.106;2023-11-19T07:06:46;5.20;99.90
15819;DHT22;8010;53.986;12.106;2023-11-19T07:09:13;5.30;99.90
15819;DHT22;8010;53.986;12.106;2023-11-19T07:11:40;5.30;99.90
15819;DHT22;8010;53.986;12.106;2023-11-19T07:14:06;5.30;99.90
15819;DHT22;8010;53.986;12.106;2023-11-19T07:16:35;5.30;99.90
15819;DHT22;8010;53.986;12.106;2023-11-19T07:19:03;5.30;99.90
15819;DHT22;8010;53.986;12.106;2023-11-19T07:21:28;5.30;99.90
15819;DHT22;8010;53.986;12.106;2023-11-19T07:23:57;5.30;99.90
15819;DHT22;8010;53.986;12.106;2023-11-19T07:26:23;5.30;99.90
15819;DHT22;8010;53.986;12.106;2023-11-19T07:28:52;5.40;99.90
15819;DHT22;8010;53.986;12.106;2023-11-19T07:31:17;5.30;99.90
15819;DHT22;8010;53.986;12.106;2023-11-19T07:33:45;5.30;99.90
15819;DHT22;8010;53.986;12.106;2023-11-19T07:36:11;5.30;99.90
15819;DHT22;8010;53.986;12.106;2023-11-19T07:38:37;5.40;99.90
15819;DHT22;8010;53.986;12.106;2023-11-19T07:41:04;5.40;99.90
15819;DHT22;8010;53.986;12.106;2023-11-19T07:43:30;5.40;99.90
15819;DHT22;8010;53.986;12.106;2023-11-19T07:45:56;5.40;99.90
15819;DHT22;8010;53.986;12.106;2023-11-19T07:48:24;5.50;99.90
15819;DHT22;8010;53.986;12.106;2023-11-19T07:50:50;5.50;99.90
15819;DHT22;8010;53.986;12.106;2023-11-19T07:53:16;5.50;99.90
15819;DHT22;8010;53.986;12.106;2023-11-19T07:55:41;5.50;99.90
15819;DHT22;8010;53.986;12.106;2023-11-19T07:58:07;5.50;99.90
15819;DHT22;8010;53.986;12.106;2023-11-19T08:00:33;5.50;99.90
15819;DHT22;8010;53.986;12.106;2023-11-19T08:02:58;5.50;99.90
15819;DHT22;8010;53.986;12.106;2023-11-19T08:05:24;5.60;99.90
15819;DHT22;8010;53.986;12.106;2023-11-19T08:07:52;5.60;99.90
15819;DHT22;8010;53.986;12.106;2023-11-19T08:10:19;5.60;99.90
15819;DHT22;8010;53.986;12.106;2023-11-19T08:12:44;5.60;99.90
15819;DHT22;8010;53.986;12.106;2023-11-19T08:15:10;5.60;99.90
15819;DHT22;8010;53.986;12.106;2023-11-19T08:17:36;5.70;99.90
15819;DHT22;8010;53.986;12.106;2023-11-19T08:20:02;5.70;99.90
15819;DHT22;8010;53.986;12.106;2023-11-19T08:22:28;5.70;99.90
15819;DHT22;8010;53.986;12.106;2023-11-19T08:24:53;5.70;99.90
15819;DHT22;8010;53.986;12.106;2023-11-19T08:27:19;5.70;99.90
15819;DHT22;8010;53.986;12.106;2023-11-19T08:29:54;5.70;99.90
15819;DHT22;8010;53.986;12.106;2023-11-19T08:32:26;5.70;99.90
15819;DHT22;8010;53.986;12.106;2023-11-19T08:34:52;5.70;99.90
15819;DHT22;8010;53.986;12.106;2023-11-19T08:37:18;5.70;99.90
15819;DHT22;8010;53.986;12.106;2023-11-19T08:39:48;5.70;99.90
15819;DHT22;8010;53.986;12.106;2023-11-19T08:42:14;5.80;99.90
15819;DHT22;8010;53.986;12.106;2023-11-19T08:44:40;5.80;99.90
15819;DHT22;8010;53.986;12.106;2023-11-19T08:47:09;5.80;99.90
15819;DHT22;8010;53.986;12.106;2023-11-19T08:49:35;5.80;99.90
15819;DHT22;8010;53.986;12.106;2023-11-19T08:52:00;5.80;99.90
15819;DHT22;8010;53.986;12.106;2023-11-19T08:54:26;5.80;99.90
15819;DHT22;8010;53.986;12.106;2023-11-19T08:56:51;5.90;99.90
15819;DHT22;8010;53.986;12.106;2023-11-19T08:59:17;5.90;99.90
15819;DHT22;8010;53.986;12.106;2023-11-19T09:01:44;5.90;99.90
15819;DHT22;8010;53.986;12.106;2023-11-19T09:04:10;5.90;99.90
15819;DHT22;8010;53.986;12.106;2023-11-19T09:06:36;6.00;99.90
15819;DHT22;8010;53.986;12.106;2023-11-19T09:09:01;6.00;99.90
15819;DHT22;8010;53.986;12.106;2023-11-19T09:11:28;6.00;99.90
15819;DHT22;8010;53.986;12.106;2023-11-19T09:13:54;6.00;99.90
15819;DHT22;8010;53.986;12.106;2023-11-19T09:16:20;6.00;99.90
15819;DHT22;8010;53.986;12.106;2023-11-19T09:18:45;6.00;99.90
15819;DHT22;8010;53.986;12.106;2023-11-19T09:21:11;6.10;99.90
15819;DHT22;8010;53.986;12.106;2023-11-19T09:23:37;6.10;99.90
15819;DHT22;8010;53.986;12.106;2023-11-19T09:26:05;6.10;99.90
15819;DHT22;8010;53.986;12.106;2023-11-19T09:28:31;6.10;99.90
15819;DHT22;8010;53.986;12.106;2023-11-19T09:30:57;6.20;99.90
15819;DHT22;8010;53.986;12.106;2023-11-19T09:33:23;6.20;99.90
15819;DHT22;8010;53.986;12.106;2023-11-19T09:35:48;6.30;99.90
15819;DHT22;8010;53.986;12.106;2023-11-19T09:38:15;6.30;99.90
15819;DHT22;8010;53.986;12.106;2023-11-19T09:40:40;6.40;99.90
15819;DHT22;8010;53.986;12.106;2023-11-19T09:43:07;6.30;99.90
15819;DHT22;8010;53.986;12.106;2023-11-19T09:45:47;6.40;99.90
15819;DHT22;8010;53.986;12.106;2023-11-19T09:48:16;6.50;99.90
15819;DHT22;8010;53.986;12.106;2023-11-19T09:50:42;6.60;99.90
15819;DHT22;8010;53.986;12.106;2023-11-19T09:53:08;6.70;99.90
15819;DHT22;8010;53.986;12.106;2023-11-19T09:55:33;6.70;99.90
15819;DHT22;8010;53.986;12.106;2023-11-19T09:58:00;6.80;99.90
15819;DHT22;8010;53.986;12.106;2023-11-19T10:00:27;6.80;99.90
15819;DHT22;8010;53.986;12.106;2023-11-19T10:02:54;6.80;99.90
15819;DHT22;8010;53.986;12.106;2023-11-19T10:05:20;6.80;99.90
15819;DHT22;8010;53.986;12.106;2023-11-19T10:07:47;7.00;99.90
15819;DHT22;8010;53.986;12.106;2023-11-19T10:10:12;7.00;99.90
15819;DHT22;8010;53.986;12.106;2023-11-19T10:12:44;7.10;99.90
15819;DHT22;8010;53.986;12.106;2023-11-19T10:15:17;7.10;99.90
15819;DHT22;8010;53.986;12.106;2023-11-19T10:17:44;7.20;99.90
15819;DHT22;8010;53.986;12.106;2023-11-19T10:20:10;7.30;99.90
15819;DHT22;8010;53.986;12.106;2023-11-19T10:22:39;7.30;99.90
15819;DHT22;8010;53.986;12.106;2023-11-19T10:25:10;7.40;99.90
15819;DHT22;8010;53.986;12.106;2023-11-19T10:27:47;7.40;99.90
15819;DHT22;8010;53.986;12.106;2023-11-19T10:30:14;7.50;99.90
15819;DHT22;8010;53.986;12.106;2023-11-19T10:32:42;7.60;99.90
15819;DHT22;8010;53.986;12.106;2023-11-19T10:35:08;7.70;99.90
15819;DHT22;8010;53.986;12.106;2023-11-19T10:37:33;7.70;99.90
15819;DHT22;8010;53.986;12.106;2023-11-19T10:40:02;7.80;99.90
15819;DHT22;8010;53.986;12.106;2023-11-19T10:42:30;7.90;99.90
15819;DHT22;8010;53.986;12.106;2023-11-19T10:44:56;7.90;99.90
15819;DHT22;8010;53.986;12.106;2023-11-19T10:47:23;8.10;99.90
15819;DHT22;8010;53.986;12.106;2023-11-19T10:49:49;8.10;99.90
15819;DHT22;8010;53.986;12.106;2023-11-19T10:52:18;8.30;99.90
15819;DHT22;8010;53.986;12.106;2023-11-19T10:54:50;8.40;99.90
15819;DHT22;8010;53.986;12.106;2023-11-19T10:57:21;8.50;99.90
15819;DHT22;8010;53.986;12.106;2023-11-19T10:59:52;8.60;99.90
15819;DHT22;8010;53.986;12.106;2023-11-19T11:02:22;8.70;99.90
15819;DHT22;8010;53.986;12.106;2023-11-19T11:04:51;9.00;99.90
15819;DHT22;8010;53.986;12.106;2023-11-19T11:07:21;9.20;99.90
15819;DHT22;8010;53.986;12.106;2023-11-19T11:09:48;9.40;99.90
15819;DHT22;8010;53.986;12.106;2023-11-19T11:12:15;9.50;99.90
15819;DHT22;8010;53.986;12.106;2023-11-19T11:14:44;9.60;99.90
15819;DHT22;8010;53.986;12.106;2023-11-19T11:17:12;9.70;99.90
15819;DHT22;8010;53.986;12.106;2023-11-19T11:19:38;9.80;99.90
15819;DHT22;8010;53.986;12.106;2023-11-19T11:22:04;9.90;99.90
15819;DHT22;8010;53.986;12.106;2023-11-19T11:24:34;10.10;99.90
15819;DHT22;8010;53.986;12.106;2023-11-19T11:27:21;10.10;99.90
15819;DHT22;8010;53.986;12.106;2023-11-19T11:30:13;10.20;99.90
15819;DHT22;8010;53.986;12.106;2023-11-19T11:35:30;10.40;99.90
15819;DHT22;8010;53.986;12.106;2023-11-19T11:38:06;10.50;99.90
15819;DHT22;8010;53.986;12.106;2023-11-19T11:40:32;10.50;99.90
15819;DHT22;8010;53.986;12.106;2023-11-19T11:42:57;10.70;99.90
15819;DHT22;8010;53.986;12.106;2023-11-19T11:45:37;10.70;99.90
15819;DHT22;8010;53.986;12.106;2023-11-19T11:48:04;10.80;99.90
15819;DHT22;8010;53.986;12.106;2023-11-19T11:50:33;10.90;99.90
15819;DHT22;8010;53.986;12.106;2023-11-19T11:55:28;11.00;99.90
15819;DHT22;8010;53.986;12.106;2023-11-19T11:57:57;11.10;99.90
15819;DHT22;8010;53.986;12.106;2023-11-19T12:03:05;11.20;99.90
15819;DHT22;8010;53.986;12.106;2023-11-19T12:05:32;11.30;99.90
15819;DHT22;8010;53.986;12.106;2023-11-19T12:08:04;11.30;99.90
15819;DHT22;8010;53.986;12.106;2023-11-19T12:10:36;11.40;99.90
15819;DHT22;8010;53.986;12.106;2023-11-19T12:13:05;11.40;99.90
15819;DHT22;8010;53.986;12.106;2023-11-19T12:15:33;11.40;99.90
15819;DHT22;8010;53.986;12.106;2023-11-19T12:18:19;11.50;99.90
15819;DHT22;8010;53.986;12.106;2023-11-19T12:20:45;11.60;99.90
15819;DHT22;8010;53.986;12.106;2023-11-19T12:23:10;11.60;99.90
15819;DHT22;8010;53.986;12.106;2023-11-19T12:25:36;11.60;99.90
15819;DHT22;8010;53.986;12.106;2023-11-19T12:28:02;11.70;99.90
15819;DHT22;8010;53.986;12.106;2023-11-19T12:30:29;11.80;99.90
15819;DHT22;8010;53.986;12.106;2023-11-19T12:32:55;11.80;99.90
15819;DHT22;8010;53.986;12.106;2023-11-19T12:35:21;11.80;99.90
15819;DHT22;8010;53.986;12.106;2023-11-19T12:37:48;11.80;99.90
15819;DHT22;8010;53.986;12.106;2023-11-19T12:40:16;11.80;99.90
15819;DHT22;8010;53.986;12.106;2023-11-19T12:42:45;11.80;99.90
15819;DHT22;8010;53.986;12.106;2023-11-19T12:45:11;11.80;99.90
15819;DHT22;8010;53.986;12.106;2023-11-19T12:47:38;11.80;99.90
15819;DHT22;8010;53.986;12.106;2023-11-19T12:50:05;11.80;99.90
15819;DHT22;8010;53.986;12.106;2023-11-19T12:52:30;11.80;99.90
15819;DHT22;8010;53.986;12.106;2023-11-19T12:54:56;11.80;99.90
15819;DHT22;8010;53.986;12.106;2023-11-19T12:57:42;11.80;99.90
15819;DHT22;8010;53.986;12.106;2023-11-19T13:00:18;11.80;99.90
15819;DHT22;8010;53.986;12.106;2023-11-19T13:02:47;11.80;99.90
15819;DHT22;8010;53.986;12.106;2023-11-19T13:05:30;11.80;99.90
15819;DHT22;8010;53.986;12.106;2023-11-19T13:10:28;12.10;99.90
15819;DHT22;8010;53.986;12.106;2023-11-19T13:13:04;12.00;99.90
15819;DHT22;8010;53.986;12.106;2023-11-19T13:15:31;12.00;99.90
15819;DHT22;8010;53.986;12.106;2023-11-19T13:17:56;11.90;99.90
15819;DHT22;8010;53.986;12.106;2023-11-19T13:20:22;11.80;99.90
15819;DHT22;8010;53.986;12.106;2023-11-19T13:23:01;11.80;99.90
15819;DHT22;8010;53.986;12.106;2023-11-19T13:25:27;11.80;99.90
15819;DHT22;8010;53.986;12.106;2023-11-19T13:27:53;11.80;99.90
15819;DHT22;8010;53.986;12.106;2023-11-19T13:30:19;11.80;99.90
15819;DHT22;8010;53.986;12.106;2023-11-19T13:32:45;11.80;99.90
15819;DHT22;8010;53.986;12.106;2023-11-19T13:35:12;11.80;99.90
15819;DHT22;8010;53.986;12.106;2023-11-19T13:37:38;11.80;99.90
15819;DHT22;8010;53.986;12.106;2023-11-19T13:40:04;11.80;99.90
15819;DHT22;8010;53.986;12.106;2023-11-19T13:42:30;11.80;99.90
15819;DHT22;8010;53.986;12.106;2023-11-19T13:44:55;11.80;99.90
15819;DHT22;8010;53.986;12.106;2023-11-19T13:47:21;11.90;99.90
15819;DHT22;8010;53.986;12.106;2023-11-19T13:49:47;11.90;99.90
15819;DHT22;8010;53.986;12.106;2023-11-19T13:52:13;12.00;99.90
15819;DHT22;8010;53.986;12.106;2023-11-19T13:54:38;11.90;99.90
15819;DHT22;8010;53.986;12.106;2023-11-19T13:57:04;11.90;99.90
15819;DHT22;8010;53.986;12.106;2023-11-19T13:59:30;11.80;99.90
15819;DHT22;8010;53.986;12.106;2023-11-19T14:01:57;11.80;99.90
15819;DHT22;8010;53.986;12.106;2023-11-19T14:04:23;11.80;99.90
15819;DHT22;8010;53.986;12.106;2023-11-19T14:06:48;11.80;99.90
15819;DHT22;8010;53.986;12.106;2023-11-19T14:09:14;11.70;99.90
15819;DHT22;8010;53.986;12.106;2023-11-19T14:11:39;11.70;99.90
15819;DHT22;8010;53.986;12.106;2023-11-19T14:14:06;11.60;99.90
15819;DHT22;8010;53.986;12.106;2023-11-19T14:16:31;11.60;99.90
15819;DHT22;8010;53.986;12.106;2023-11-19T14:18:57;11.60;99.90
15819;DHT22;8010;53.986;12.106;2023-11-19T14:21:23;11.60;99.90
15819;DHT22;8010;53.986;12.106;2023-11-19T14:23:50;11.60;99.90
15819;DHT22;8010;53.986;12.106;2023-11-19T14:26:15;11.50;99.90
15819;DHT22;8010;53.986;12.106;2023-11-19T14:28:41;11.50;99.90
15819;DHT22;8010;53.986;12.106;2023-11-19T14:31:07;11.40;99.90
15819;DHT22;8010;53.986;12.106;2023-11-19T14:33:32;11.40;99.90
15819;DHT22;8010;53.986;12.106;2023-11-19T14:35:59;11.30;99.90
15819;DHT22;8010;53.986;12.106;2023-11-19T14:38:25;11.30;99.90
15819;DHT22;8010;53.986;12.106;2023-11-19T14:40:51;11.30;99.90
15819;DHT22;8010;53.986;12.106;2023-11-19T14:43:16;11.20;99.90
15819;DHT22;8010;53.986;12.106;2023-11-19T14:45:42;11.20;99.90
15819;DHT22;8010;53.986;12.106;2023-11-19T14:48:08;11.20;99.90
15819;DHT22;8010;53.986;12.106;2023-11-19T14:50:35;11.20;99.90
15819;DHT22;8010;53.986;12.106;2023-11-19T14:53:01;11.20;99.90
15819;DHT22;8010;53.986;12.106;2023-11-19T14:55:26;11.10;99.90
15819;DHT22;8010;53.986;12.106;2023-11-19T14:57:52;11.90;99.90
15819;DHT22;8010;53.986;12.106;2023-11-19T15:00:18;11.10;99.90
15819;DHT22;8010;53.986;12.106;2023-11-19T15:02:43;11.10;99.90
15819;DHT22;8010;53.986;12.106;2023-11-19T15:05:09;11.10;99.90
15819;DHT22;8010;53.986;12.106;2023-11-19T15:07:36;11.00;99.90
15819;DHT22;8010;53.986;12.106;2023-11-19T15:10:02;11.00;99.90
15819;DHT22;8010;53.986;12.106;2023-11-19T15:12:30;11.00;99.90
15819;DHT22;8010;53.986;12.106;2023-11-19T15:14:56;11.00;99.90
15819;DHT22;8010;53.986;12.106;2023-11-19T15:17:21;11.00;99.90
15819;DHT22;8010;53.986;12.106;2023-11-19T15:19:47;10.90;99.90
15819;DHT22;8010;53.986;12.106;2023-11-19T15:22:13;10.90;99.90
15819;DHT22;8010;53.986;12.106;2023-11-19T15:24:38;10.90;99.90
15819;DHT22;8010;53.986;12.106;2023-11-19T15:27:07;10.90;99.90
15819;DHT22;8010;53.986;12.106;2023-11-19T15:29:34;10.90;99.90
15819;DHT22;8010;53.986;12.106;2023-11-19T15:32:00;10.90;99.90
15819;DHT22;8010;53.986;12.106;2023-11-19T15:34:25;10.80;99.90
15819;DHT22;8010;53.986;12.106;2023-11-19T15:36:51;10.80;99.90
15819;DHT22;8010;53.986;12.106;2023-11-19T15:39:16;10.80;99.90
15819;DHT22;8010;53.986;12.106;2023-11-19T15:41:42;10.80;99.90
15819;DHT22;8010;53.986;12.106;2023-11-19T15:44:07;10.70;99.90
15819;DHT22;8010;53.986;12.106;2023-11-19T15:46:33;10.70;99.90
15819;DHT22;8010;53.986;12.106;2023-11-19T15:48:59;10.80;99.90
15819;DHT22;8010;53.986;12.106;2023-11-19T15:51:24;10.80;99.90
15819;DHT22;8010;53.986;12.106;2023-11-19T15:53:50;10.70;99.90
15819;DHT22;8010;53.986;12.106;2023-11-19T15:56:15;10.80;99.90